Aviation Digital Data Service (ADDS)

Output produced by METARs form (1606 UTC 15 December 2017)
found at http://aviationweather.gov/adds/metars/
 
METAR text: EDJA 151550Z 26011KT 9999 FEW040 02/M01 Q0999
Conditions at: EDJA (MEMMINGEN ALLGAU, DE) observed 1550 UTC 15 December 2017
Temperature: 2.0°C (36°F)
Dewpoint: -1.0°C (30°F) [RH = 80%]
Pressure (altimeter): 29.50 inches Hg (999.0 mb)
Winds: from the W (260 degrees) at 13 MPH (11 knots; 5.7 m/s)
Visibility: 6 or more miles (10+ km)
Ceiling: at least 12,000 feet AGL
Clouds: few clouds at 4000 feet AGL
Weather: no significant weather observed at this time

Forecast for: EDJA (MEMMINGEN ALLGAU, DE)
Text: TAF EDJA 151400Z 1515/1524 24012KT 9999 SCT020
Forecast period: 1500 to 1600 UTC 15 December 2017
Forecast type: FROM: standard forecast or significant change
Winds: from the WSW (240 degrees) at 14 MPH (12 knots; 6.2 m/s)
Visibility: 6 or more miles (10+ km)
Clouds: scattered clouds at 2000 feet AGL
Weather: no significant weather forecast for this period
Text: BECMG 1516/1518 22007KT
Forecast period: 1600 UTC 15 December 2017 to 0000 UTC 16 December 2017
Forecast type: BECOMING: Conditions expected to become as follows by 1800 UTC 15 December 2017
Winds: from the SW (220 degrees) at 8 MPH (7 knots; 3.6 m/s)
Visibility: 6 or more miles (10+ km)
Clouds: scattered clouds at 2000 feet AGL
Weather: no significant weather forecast for this period